Time;durP1;ratioP1;P1;durP2;ratioP2;P2;SDS_P1;SDS_P2;PMS_P1;PMS_P2;Temp;Humidity;BMP_temperature;BMP_pressure;BME280_temperature;BME280_humidity;BME280_pressure;Samples;Min_cycle;Max_cycle;Signal;HPM_P1;HPM_P2
2021/01/26 00:00:32;;;;;;;12.45;2.90;;;12.80;47.90;;;;;;4991947;28;20088;-69
2021/01/26 00:02:58;;;;;;;12.10;3.60;;;12.80;48.30;;;;;;4988297;28;20022;-69
2021/01/26 00:05:25;;;;;;;12.80;3.28;;;12.60;48.60;;;;;;4979931;28;20144;-70
2021/01/26 00:07:51;;;;;;;20.08;4.13;;;12.50;49.20;;;;;;4990269;28;20053;-68
2021/01/26 00:10:18;;;;;;;21.02;4.20;;;12.50;48.70;;;;;;4992023;28;20030;-69
2021/01/26 00:12:44;;;;;;;20.83;4.25;;;12.50;48.70;;;;;;4988760;28;20039;-69
2021/01/26 00:15:11;;;;;;;11.95;3.72;;;12.40;48.90;;;;;;4981210;28;20374;-69
2021/01/26 00:17:38;;;;;;;16.20;4.63;;;12.50;48.90;;;;;;4984596;28;20034;-67
2021/01/26 00:20:12;;;;;;;17.33;5.18;;;12.40;49.60;;;;;;4993002;28;20117;-69
2021/01/26 00:22:39;;;;;;;20.02;4.70;;;12.70;48.40;;;;;;4996937;28;20092;-68
2021/01/26 00:25:08;;;;;;;16.63;3.47;;;12.60;48.90;;;;;;4992972;28;20077;-68
2021/01/26 00:27:34;;;;;;;18.50;4.88;;;12.50;49.40;;;;;;4984755;28;20061;-69
2021/01/26 00:30:02;;;;;;;15.20;3.80;;;12.30;49.70;;;;;;4993621;28;20053;-70
2021/01/26 00:32:29;;;;;;;12.02;3.65;;;12.40;50.30;;;;;;4992010;28;20053;-68
2021/01/26 00:34:55;;;;;;;12.93;3.70;;;12.30;50.10;;;;;;4995049;28;20034;-69
2021/01/26 00:37:21;;;;;;;9.35;3.10;;;12.50;50.10;;;;;;4995610;28;20023;-68
2021/01/26 00:39:48;;;;;;;11.98;3.45;;;12.50;49.40;;;;;;4994344;28;20148;-68
2021/01/26 00:42:14;;;;;;;15.95;4.22;;;12.40;49.60;;;;;;4990248;28;20132;-69
2021/01/26 00:44:40;;;;;;;10.82;3.13;;;12.40;49.50;;;;;;4988876;28;20357;-69
2021/01/26 00:47:07;;;;;;;18.17;3.35;;;12.30;49.30;;;;;;4994077;28;20026;-69
2021/01/26 00:49:33;;;;;;;13.15;3.47;;;12.30;48.80;;;;;;4986049;28;20037;-70
2021/01/26 00:52:00;;;;;;;10.90;3.35;;;12.20;48.50;;;;;;4988342;28;20022;-70
2021/01/26 00:54:26;;;;;;;11.35;3.05;;;12.00;49.10;;;;;;4987071;28;20132;-69
2021/01/26 00:56:53;;;;;;;11.90;3.53;;;12.10;49.40;;;;;;4989784;28;20042;-68
2021/01/26 00:59:19;;;;;;;20.52;5.25;;;11.90;49.20;;;;;;4983588;28;20060;-68
2021/01/26 01:01:45;;;;;;;13.90;4.15;;;11.90;49.70;;;;;;4988568;28;20135;-69
2021/01/26 01:04:12;;;;;;;14.07;3.42;;;12.00;49.70;;;;;;4983600;28;20026;-69
2021/01/26 01:06:38;;;;;;;20.88;4.22;;;12.20;50.00;;;;;;4987501;28;20129;-69
2021/01/26 01:09:05;;;;;;;23.80;4.93;;;12.10;49.80;;;;;;4988288;28;20432;-70
2021/01/26 01:11:31;;;;;;;19.33;4.88;;;12.00;50.20;;;;;;4991002;28;20360;-70
2021/01/26 01:13:58;;;;;;;20.42;4.45;;;12.10;49.60;;;;;;4990380;28;20026;-69
2021/01/26 01:16:24;;;;;;;17.17;4.60;;;12.20;49.30;;;;;;4986697;28;20030;-69
2021/01/26 01:18:50;;;;;;;13.30;3.38;;;11.90;49.00;;;;;;4995129;28;20027;-68
2021/01/26 01:21:17;;;;;;;16.73;3.85;;;11.90;48.70;;;;;;4987174;28;20023;-68
2021/01/26 01:23:43;;;;;;;12.05;3.47;;;11.80;48.40;;;;;;4994752;28;20461;-71
2021/01/26 01:26:10;;;;;;;20.25;5.65;;;11.70;49.00;;;;;;4993478;28;20022;-69
2021/01/26 01:28:36;;;;;;;14.15;3.25;;;11.80;48.40;;;;;;4994739;28;20065;-70
2021/01/26 01:31:02;;;;;;;18.85;4.45;;;11.60;49.40;;;;;;4991703;28;20482;-69
2021/01/26 01:33:29;;;;;;;14.60;4.43;;;11.50;50.10;;;;;;4991944;28;20041;-73
2021/01/26 01:35:55;;;;;;;14.38;3.45;;;11.60;49.10;;;;;;4993859;28;20030;-71
2021/01/26 01:38:22;;;;;;;17.10;4.00;;;11.60;48.90;;;;;;4985474;28;20361;-70
2021/01/26 01:40:52;;;;;;;13.65;4.53;;;11.70;48.30;;;;;;4990529;28;20022;-70
2021/01/26 01:43:19;;;;;;;10.02;4.43;;;11.60;48.60;;;;;;4991787;28;20084;-70
2021/01/26 01:45:45;;;;;;;13.60;4.55;;;11.40;48.80;;;;;;4993529;28;20109;-70
2021/01/26 01:48:28;;;;;;;14.40;3.72;;;11.40;48.90;;;;;;4992985;28;20400;-69
2021/01/26 01:51:14;;;;;;;14.10;3.38;;;11.50;48.30;;;;;;4989912;28;20077;-69
2021/01/26 01:53:46;;;;;;;18.23;3.40;;;11.60;48.10;;;;;;4990002;28;20368;-70
2021/01/26 01:56:32;;;;;;;13.95;4.13;;;11.50;48.40;;;;;;4987949;28;20035;-72
2021/01/26 01:59:04;;;;;;;12.10;3.35;;;11.40;48.50;;;;;;4983924;28;20050;-68
2021/01/26 02:01:31;;;;;;;13.77;3.00;;;11.30;48.90;;;;;;4991352;28;20089;-69
2021/01/26 02:04:10;;;;;;;12.93;3.28;;;11.50;48.10;;;;;;4992008;28;20037;-68
2021/01/26 02:06:39;;;;;;;16.55;3.03;;;11.50;48.20;;;;;;4991968;28;20030;-69
2021/01/26 02:09:19;;;;;;;14.13;3.50;;;11.30;48.80;;;;;;4986073;28;20026;-69
2021/01/26 02:11:47;;;;;;;12.77;4.13;;;11.40;49.10;;;;;;4988536;28;20038;-70
2021/01/26 02:14:14;;;;;;;22.25;5.45;;;11.30;49.10;;;;;;4991362;28;20026;-70
2021/01/26 02:16:56;;;;;;;18.23;5.50;;;11.30;49.20;;;;;;4992909;28;20026;-70
2021/01/26 02:19:53;;;;;;;16.63;3.87;;;11.30;49.20;;;;;;4984210;28;20034;-69
2021/01/26 02:23:08;;;;;;;11.90;2.90;;;11.30;49.60;;;;;;4984338;28;20030;-69
2021/01/26 02:25:56;;;;;;;9.35;2.92;;;11.30;50.00;;;;;;4985969;28;20045;-69
2021/01/26 02:28:44;;;;;;;21.80;4.65;;;11.20;50.20;;;;;;4986413;28;20129;-69
2021/01/26 02:31:39;;;;;;;10.93;3.85;;;11.40;49.90;;;;;;4981627;28;20038;-69
2021/01/26 02:35:02;;;;;;;16.10;3.75;;;11.20;50.70;;;;;;4990048;28;20050;-69
2021/01/26 02:38:13;;;;;;;11.10;4.07;;;11.20;51.10;;;;;;4988323;28;20038;-69
2021/01/26 02:40:42;;;;;;;10.73;3.55;;;11.20;50.90;;;;;;4989082;28;20125;-69
2021/01/26 02:43:38;;;;;;;15.85;3.40;;;11.20;51.00;;;;;;4987739;28;20038;-68
2021/01/26 02:46:28;;;;;;;10.88;3.47;;;11.50;49.80;;;;;;4979699;28;20038;-69
2021/01/26 02:49:27;;;;;;;17.33;4.03;;;11.30;50.30;;;;;;4988319;28;20034;-69
2021/01/26 02:52:34;;;;;;;14.55;2.90;;;11.10;50.80;;;;;;4986189;28;20461;-70
2021/01/26 02:55:28;;;;;;;9.65;4.03;;;11.20;50.40;;;;;;4985178;28;20034;-70
2021/01/26 02:58:20;;;;;;;21.25;3.92;;;11.20;50.80;;;;;;4992123;28;20034;-69
2021/01/26 03:00:54;;;;;;;17.27;4.68;;;11.30;50.10;;;;;;4983357;28;20485;-70
2021/01/26 03:03:40;;;;;;;13.88;4.60;;;11.10;50.60;;;;;;4986611;28;20361;-69
2021/01/26 03:06:28;;;;;;;16.48;3.75;;;11.20;50.90;;;;;;4984724;28;20024;-70
2021/01/26 03:09:01;;;;;;;15.20;4.07;;;11.20;50.50;;;;;;4983953;28;20413;-69
2021/01/26 03:11:35;;;;;;;9.50;2.60;;;11.10;51.30;;;;;;4982663;28;20110;-69
2021/01/26 03:14:33;;;;;;;16.75;4.45;;;11.10;51.20;;;;;;4978338;28;20030;-69
2021/01/26 03:17:10;;;;;;;15.27;3.40;;;11.50;50.70;;;;;;4990794;28;20057;-70
2021/01/26 03:19:39;;;;;;;15.10;4.38;;;11.40;51.40;;;;;;4986893;28;20023;-69
2021/01/26 03:22:08;;;;;;;13.52;4.85;;;11.60;50.90;;;;;;4988669;28;20476;-72
2021/01/26 03:24:40;;;;;;;20.20;3.55;;;11.30;51.50;;;;;;4996127;28;20038;-73
2021/01/26 03:27:11;;;;;;;16.10;4.18;;;11.10;52.50;;;;;;4994674;28;20022;-72
2021/01/26 03:29:42;;;;;;;19.13;4.05;;;11.30;51.50;;;;;;4995414;28;20042;-74
2021/01/26 03:32:14;;;;;;;12.93;4.22;;;11.10;51.80;;;;;;4996702;28;20041;-72
2021/01/26 03:34:40;;;;;;;11.50;3.30;;;11.20;52.00;;;;;;4996541;28;20060;-72
2021/01/26 03:37:07;;;;;;;16.13;4.68;;;11.30;51.40;;;;;;4995990;28;20030;-71
2021/01/26 03:39:34;;;;;;;10.20;3.30;;;11.00;51.80;;;;;;4987090;28;20038;-74
2021/01/26 03:42:00;;;;;;;7.75;3.03;;;11.10;51.00;;;;;;4995584;28;20061;-73
2021/01/26 03:44:28;;;;;;;14.35;3.55;;;11.10;51.30;;;;;;4990309;28;20121;-74
2021/01/26 03:47:09;;;;;;;8.18;3.15;;;11.30;50.80;;;;;;4991640;28;20046;-69
2021/01/26 03:49:57;;;;;;;9.48;3.13;;;11.30;50.50;;;;;;4989662;28;20117;-70
2021/01/26 03:52:36;;;;;;;7.50;3.30;;;11.30;50.40;;;;;;4989070;28;20030;-70
2021/01/26 03:55:35;;;;;;;16.45;3.42;;;11.40;50.10;;;;;;4986058;28;20042;-71
2021/01/26 03:58:20;;;;;;;12.43;3.47;;;11.20;50.00;;;;;;4984252;28;20077;-70
2021/01/26 04:01:23;;;;;;;8.55;3.00;;;11.20;50.50;;;;;;4997888;28;20092;-71
2021/01/26 04:04:16;;;;;;;11.45;3.72;;;11.00;51.00;;;;;;4987605;28;20104;-70
2021/01/26 04:06:52;;;;;;;17.58;3.35;;;11.30;50.80;;;;;;4990813;28;20450;-70
2021/01/26 04:09:24;;;;;;;15.05;3.67;;;11.20;51.20;;;;;;4994366;28;20030;-70
2021/01/26 04:11:56;;;;;;;17.25;4.47;;;11.10;51.10;;;;;;4990799;28;20026;-71
2021/01/26 04:14:24;;;;;;;19.33;4.05;;;11.20;50.50;;;;;;4990709;28;20031;-70
2021/01/26 04:17:20;;;;;;;10.65;4.05;;;11.30;50.30;;;;;;4991350;28;20030;-68
2021/01/26 04:20:03;;;;;;;8.27;3.63;;;11.20;50.50;;;;;;4992162;28;20046;-69
2021/01/26 04:22:30;;;;;;;12.98;3.58;;;11.40;49.80;;;;;;4994551;28;20026;-70
2021/01/26 04:24:57;;;;;;;10.52;3.53;;;11.30;50.40;;;;;;4995568;28;20034;-69
2021/01/26 04:27:24;;;;;;;16.50;4.38;;;11.30;50.70;;;;;;4996704;28;20026;-70
2021/01/26 04:29:52;;;;;;;14.70;3.58;;;11.00;51.60;;;;;;4988762;28;20073;-69
2021/01/26 04:32:23;;;;;;;10.80;3.10;;;11.00;51.60;;;;;;4986540;28;20041;-69
2021/01/26 04:34:50;;;;;;;16.00;3.72;;;11.00;51.80;;;;;;4991608;28;20045;-70
2021/01/26 04:37:16;;;;;;;16.77;4.05;;;11.00;51.70;;;;;;4989691;28;20069;-70
2021/01/26 04:39:43;;;;;;;12.95;2.85;;;11.10;50.80;;;;;;4992304;28;20018;-70
2021/01/26 04:42:17;;;;;;;12.90;4.57;;;11.00;51.00;;;;;;4989890;28;20033;-70
2021/01/26 04:45:03;;;;;;;11.55;3.90;;;10.80;51.10;;;;;;4990977;28;20034;-70
2021/01/26 04:50:49;;;;;;;9.15;3.05;;;10.80;51.90;;;;;;4990490;28;20112;-69
2021/01/26 04:53:39;;;;;;;13.60;3.33;;;11.00;51.70;;;;;;4993649;28;20027;-71
2021/01/26 04:56:09;;;;;;;14.15;3.65;;;11.00;52.30;;;;;;4994050;28;20352;-68
2021/01/26 04:58:53;;;;;;;16.88;5.15;;;11.20;52.20;;;;;;4993639;28;20061;-68
2021/01/26 05:01:34;;;;;;;11.88;3.03;;;10.80;53.10;;;;;;4995727;28;20112;-69
2021/01/26 05:04:17;;;;;;;19.40;3.50;;;11.00;53.00;;;;;;4992796;28;20030;-69
2021/01/26 05:07:02;;;;;;;13.05;4.72;;;10.90;53.20;;;;;;4991121;28;20072;-68
2021/01/26 05:09:37;;;;;;;8.98;3.65;;;10.80;53.80;;;;;;4990006;28;20093;-69
2021/01/26 05:12:06;;;;;;;15.88;3.28;;;10.90;53.40;;;;;;4983364;28;20026;-70
2021/01/26 05:14:37;;;;;;;14.40;3.22;;;10.60;54.10;;;;;;4992048;28;20381;-69
2021/01/26 05:17:23;;;;;;;12.65;3.47;;;10.60;54.50;;;;;;4992107;28;20515;-68
2021/01/26 05:20:27;;;;;;;13.93;3.30;;;10.80;53.80;;;;;;4994157;28;20026;-68
2021/01/26 05:23:08;;;;;;;20.90;5.60;;;10.80;53.30;;;;;;4963703;28;20031;-68
2021/01/26 05:25:35;;;;;;;18.52;5.97;;;11.00;52.20;;;;;;4994592;28;20038;-69
2021/01/26 05:28:01;;;;;;;9.40;2.78;;;10.90;52.00;;;;;;4988183;28;20023;-69
2021/01/26 05:30:32;;;;;;;16.27;7.03;;;11.20;50.20;;;;;;4991184;28;20368;-68
2021/01/26 05:33:04;;;;;;;12.38;3.30;;;11.20;49.90;;;;;;4988317;28;20030;-68
2021/01/26 05:35:31;;;;;;;11.25;3.05;;;11.00;50.40;;;;;;4992639;28;20038;-69
2021/01/26 05:37:58;;;;;;;13.32;4.28;;;11.00;50.20;;;;;;4980719;28;20069;-68
2021/01/26 05:40:50;;;;;;;11.75;3.53;;;10.80;50.80;;;;;;4986150;28;20117;-69
2021/01/26 05:43:20;;;;;;;13.05;3.58;;;10.70;51.80;;;;;;4993737;28;20045;-68
2021/01/26 05:45:51;;;;;;;10.85;3.45;;;11.20;50.30;;;;;;4983092;28;20039;-68
2021/01/26 05:48:21;;;;;;;9.90;4.57;;;10.80;51.50;;;;;;4988958;28;20336;-68
2021/01/26 05:50:49;;;;;;;10.48;3.65;;;11.00;51.10;;;;;;4990071;28;20069;-69
2021/01/26 05:53:30;;;;;;;13.40;3.70;;;11.00;51.40;;;;;;4992403;28;20026;-69
2021/01/26 05:56:16;;;;;;;11.60;4.00;;;11.00;51.80;;;;;;4990919;28;20068;-69
2021/01/26 05:58:47;;;;;;;10.82;3.25;;;11.10;51.70;;;;;;4986867;28;20048;-69
2021/01/26 06:01:32;;;;;;;13.55;3.50;;;10.90;52.40;;;;;;4983162;28;20037;-69
2021/01/26 06:04:17;;;;;;;9.95;3.65;;;10.50;53.40;;;;;;4985044;28;20030;-69
2021/01/26 06:07:00;;;;;;;15.13;2.97;;;10.90;52.10;;;;;;4992538;28;20410;-70
2021/01/26 06:09:41;;;;;;;10.82;3.20;;;11.00;52.10;;;;;;4987192;28;20040;-69
2021/01/26 06:12:16;;;;;;;11.15;3.45;;;11.20;51.60;;;;;;4991635;28;20364;-70
2021/01/26 06:14:59;;;;;;;10.98;4.28;;;11.10;52.00;;;;;;4983656;28;20104;-69
2021/01/26 06:17:28;;;;;;;8.85;3.78;;;10.80;53.40;;;;;;4993511;28;20527;-69
2021/01/26 06:20:23;;;;;;;7.15;2.97;;;10.70;53.80;;;;;;4992647;28;20030;-69
2021/01/26 06:22:51;;;;;;;13.27;3.65;;;10.80;53.70;;;;;;4984728;28;20034;-69
2021/01/26 06:25:25;;;;;;;12.52;4.13;;;10.40;54.90;;;;;;4994088;28;20050;-70
2021/01/26 06:28:26;;;;;;;7.20;2.75;;;10.40;55.20;;;;;;4990858;28;20125;-69
2021/01/26 06:30:59;;;;;;;17.63;3.60;;;10.30;55.60;;;;;;4992514;28;20046;-69
2021/01/26 06:33:56;;;;;;;12.45;3.50;;;10.20;56.20;;;;;;4991162;28;20054;-69
2021/01/26 06:36:35;;;;;;;8.10;3.40;;;10.30;55.60;;;;;;4990933;28;20113;-70
2021/01/26 06:39:14;;;;;;;10.65;3.67;;;10.20;56.50;;;;;;4994096;28;20034;-69
2021/01/26 06:41:40;;;;;;;12.23;3.55;;;10.20;56.60;;;;;;4991072;28;20031;-69
2021/01/26 06:44:24;;;;;;;18.02;3.65;;;10.20;56.80;;;;;;4993251;28;20031;-69
2021/01/26 06:47:04;;;;;;;12.40;3.03;;;10.10;56.80;;;;;;4993884;28;20061;-70
2021/01/26 06:50:07;;;;;;;14.93;3.55;;;10.20;57.00;;;;;;4983067;28;20113;-69
2021/01/26 06:52:39;;;;;;;;;;;10.10;56.40;;;;;;4982719;28;20037;-70
2021/01/26 06:55:33;;;;;;;14.05;3.63;;;10.00;57.50;;;;;;4983218;28;20336;-71
2021/01/26 06:58:26;;;;;;;12.93;3.70;;;10.10;57.80;;;;;;4991483;28;20042;-74
2021/01/26 07:01:20;;;;;;;15.27;3.55;;;10.20;56.90;;;;;;4991092;28;20073;-70
2021/01/26 07:04:17;;;;;;;17.95;4.68;;;10.10;57.10;;;;;;4987156;28;20046;-70
2021/01/26 07:06:43;;;;;;;16.38;3.65;;;10.20;57.00;;;;;;4991723;28;20104;-70
2021/01/26 07:09:33;;;;;;;20.40;4.57;;;10.40;56.40;;;;;;4996106;28;20340;-70
2021/01/26 07:12:33;;;;;;;12.05;3.67;;;10.30;56.60;;;;;;4993594;28;20117;-70
2021/01/26 07:15:28;;;;;;;10.13;3.40;;;10.30;56.20;;;;;;4988884;28;20022;-70
2021/01/26 07:18:06;;;;;;;15.32;3.35;;;10.40;56.70;;;;;;4997614;28;20113;-69
2021/01/26 07:21:02;;;;;;;13.30;3.90;;;10.50;56.40;;;;;;4998245;28;20048;-69
2021/01/26 07:23:50;;;;;;;13.02;3.83;;;10.50;55.80;;;;;;4992511;28;20026;-71
2021/01/26 07:26:36;;;;;;;26.52;4.55;;;10.40;55.90;;;;;;4983863;28;20035;-70
2021/01/26 07:29:08;;;;;;;6.30;3.30;;;10.40;56.00;;;;;;4982247;28;20023;-70
2021/01/26 07:31:45;;;;;;;;;;;10.30;56.20;;;;;;4998377;28;20022;-70
2021/01/26 07:34:37;;;;;;;11.63;2.92;;;10.20;56.30;;;;;;4992231;28;19958;-70
2021/01/26 07:37:11;;;;;;;11.55;3.13;;;10.20;56.60;;;;;;4980660;28;20049;-70
2021/01/26 07:39:57;;;;;;;11.82;3.40;;;10.30;56.40;;;;;;4997046;28;20042;-70
2021/01/26 07:42:37;;;;;;;16.88;4.22;;;10.20;56.70;;;;;;4997395;28;20490;-70
2021/01/26 07:45:28;;;;;;;11.38;2.97;;;10.20;56.40;;;;;;4988021;28;20368;-69
2021/01/26 07:48:11;;;;;;;10.82;3.55;;;10.20;55.90;;;;;;4982728;28;20153;-69
2021/01/26 07:50:45;;;;;;;9.05;2.97;;;10.20;55.90;;;;;;4993387;28;20096;-69
2021/01/26 07:53:27;;;;;;;17.75;5.05;;;10.10;55.80;;;;;;4997216;28;20494;-68
2021/01/26 07:56:12;;;;;;;11.38;3.67;;;10.10;56.00;;;;;;4995623;28;20042;-69
2021/01/26 07:58:45;;;;;;;12.65;3.80;;;9.80;56.40;;;;;;4992629;28;20106;-69
2021/01/26 08:01:14;;;;;;;7.93;3.67;;;9.80;56.80;;;;;;4990024;28;20122;-69
2021/01/26 08:03:42;;;;;;;16.58;4.63;;;9.70;56.50;;;;;;4998430;28;20084;-69
2021/01/26 08:06:40;;;;;;;11.55;5.47;;;9.70;56.00;;;;;;4997832;28;20024;-68
2021/01/26 08:09:12;;;;;;;11.75;4.30;;;9.90;55.40;;;;;;4981228;28;20495;-69
2021/01/26 08:12:02;;;;;;;10.32;3.60;;;9.80;55.40;;;;;;4983431;28;20030;-69
2021/01/26 08:14:49;;;;;;;11.77;3.70;;;9.80;55.40;;;;;;4995948;28;20463;-69
2021/01/26 08:17:29;;;;;;;9.32;3.13;;;9.80;55.30;;;;;;4985884;28;20022;-69
2021/01/26 08:20:13;;;;;;;10.63;3.40;;;9.70;55.30;;;;;;4985319;28;20108;-69
2021/01/26 08:23:01;;;;;;;15.13;3.67;;;9.70;55.10;;;;;;4993870;28;20061;-69
2021/01/26 08:25:40;;;;;;;8.18;2.92;;;9.70;55.00;;;;;;4994542;28;20034;-68
2021/01/26 08:28:30;;;;;;;13.75;3.35;;;9.70;54.80;;;;;;4995608;28;20026;-69
2021/01/26 08:31:01;;;;;;;10.30;3.33;;;9.70;54.50;;;;;;4991990;28;20035;-69
2021/01/26 08:33:30;;;;;;;11.57;3.45;;;9.60;54.70;;;;;;4991885;28;20026;-69
2021/01/26 08:36:10;;;;;;;8.25;3.50;;;9.60;54.70;;;;;;4991708;28;20026;-68
2021/01/26 08:39:06;;;;;;;9.38;3.20;;;9.60;54.40;;;;;;4994370;28;20043;-69
2021/01/26 08:41:45;;;;;;;10.82;3.72;;;9.60;54.10;;;;;;4995783;28;20042;-69
2021/01/26 08:44:34;;;;;;;10.82;3.63;;;9.60;54.10;;;;;;4991113;28;20089;-69
2021/01/26 08:47:18;;;;;;;13.27;3.92;;;9.50;54.70;;;;;;4988529;28;20021;-68
2021/01/26 08:49:45;;;;;;;10.73;3.35;;;9.50;54.40;;;;;;4992588;28;20045;-69
2021/01/26 08:52:31;;;;;;;8.13;3.17;;;9.40;54.40;;;;;;4993402;28;20030;-69
2021/01/26 08:54:58;;;;;;;4.22;2.88;;;9.40;54.20;;;;;;4991066;28;20026;-69
2021/01/26 08:57:27;;;;;;;12.75;3.15;;;9.30;54.60;;;;;;4992870;28;20058;-69
2021/01/26 08:59:58;;;;;;;12.05;4.15;;;9.20;54.50;;;;;;4994114;28;20556;-69
2021/01/26 09:02:41;;;;;;;6.85;3.33;;;9.30;54.40;;;;;;4996166;28;20027;-69
2021/01/26 09:05:09;;;;;;;9.68;3.83;;;9.20;54.20;;;;;;4992189;28;20037;-68
2021/01/26 09:07:56;;;;;;;12.93;4.10;;;9.20;54.20;;;;;;4996116;28;20061;-69
2021/01/26 09:10:41;;;;;;;6.55;2.90;;;9.20;54.50;;;;;;4991654;28;20069;-69
2021/01/26 09:13:22;;;;;;;9.50;3.25;;;9.20;54.50;;;;;;4994018;28;20073;-69
2021/01/26 09:15:52;;;;;;;8.70;2.65;;;9.10;54.70;;;;;;4993496;28;20023;-69
2021/01/26 09:18:25;;;;;;;11.63;3.97;;;9.00;55.20;;;;;;4993719;28;20433;-69
2021/01/26 09:20:59;;;;;;;11.02;3.20;;;9.00;54.90;;;;;;4994491;28;20069;-69
2021/01/26 09:23:26;;;;;;;6.70;2.13;;;9.20;55.10;;;;;;4986902;28;20042;-68
2021/01/26 09:25:52;;;;;;;10.63;3.17;;;9.10;55.30;;;;;;4988167;28;20046;-70
2021/01/26 09:28:24;;;;;;;14.88;3.28;;;9.00;55.50;;;;;;4988973;28;20061;-70
2021/01/26 09:31:01;;;;;;;7.20;3.03;;;9.00;55.30;;;;;;4992984;28;20022;-70
2021/01/26 09:33:29;;;;;;;6.40;2.75;;;9.00;55.10;;;;;;4991539;28;20026;-70
2021/01/26 09:36:02;;;;;;;9.05;2.92;;;8.90;55.20;;;;;;4992948;28;20030;-70
2021/01/26 09:38:32;;;;;;;;;;;8.90;55.10;;;;;;4987845;28;20033;-70
2021/01/26 09:41:19;;;;;;;5.13;2.88;;;8.80;55.20;;;;;;4995724;28;19914;-70
2021/01/26 09:43:52;;;;;;;14.48;5.10;;;8.70;55.10;;;;;;4992435;28;20034;-69
2021/01/26 09:46:21;;;;;;;;;;;8.60;55.50;;;;;;4984250;28;20022;-69
2021/01/26 09:48:50;;;;;;;8.70;3.15;;;8.60;55.60;;;;;;4995434;28;20563;-70
2021/01/26 09:51:26;;;;;;;9.10;3.13;;;8.60;56.00;;;;;;4990538;28;20038;-70
2021/01/26 09:54:11;;;;;;;9.40;3.17;;;8.50;57.30;;;;;;4979417;28;20042;-70
2021/01/26 09:56:38;;;;;;;10.02;3.00;;;8.60;56.10;;;;;;4993399;28;20101;-69
2021/01/26 09:59:11;;;;;;;15.10;4.28;;;8.50;56.00;;;;;;4991096;28;20038;-70
2021/01/26 10:01:41;;;;;;;7.65;3.38;;;8.50;56.30;;;;;;4994144;28;20041;-69
2021/01/26 10:04:08;;;;;;;16.75;5.85;;;8.50;56.00;;;;;;4988293;28;20029;-69
2021/01/26 10:06:35;;;;;;;9.75;3.08;;;8.50;57.00;;;;;;4992304;28;20105;-69
2021/01/26 10:09:27;;;;;;;8.40;3.50;;;8.50;57.00;;;;;;4987293;28;20412;-69
2021/01/26 10:12:15;;;;;;;10.05;3.90;;;8.50;56.90;;;;;;4986154;28;20456;-70
2021/01/26 10:14:41;;;;;;;11.10;3.60;;;8.50;57.30;;;;;;4994916;28;20030;-71
2021/01/26 10:17:15;;;;;;;19.70;4.30;;;8.50;57.10;;;;;;4993977;28;20026;-70
2021/01/26 10:19:41;;;;;;;8.43;3.08;;;8.40;58.20;;;;;;4995218;28;20037;-70
2021/01/26 10:22:23;;;;;;;13.63;2.90;;;8.40;57.60;;;;;;4993700;28;20447;-69
2021/01/26 10:24:50;;;;;;;8.57;3.90;;;8.50;57.00;;;;;;4993369;28;20022;-69
2021/01/26 10:27:22;;;;;;;6.47;3.25;;;8.50;57.90;;;;;;4991463;28;20030;-69
2021/01/26 10:30:02;;;;;;;7.05;3.33;;;8.50;56.60;;;;;;4989365;28;20092;-69
2021/01/26 10:32:49;;;;;;;9.88;3.17;;;8.50;56.60;;;;;;4989327;28;20508;-69
2021/01/26 10:35:32;;;;;;;8.82;2.88;;;8.30;56.60;;;;;;4991871;28;20034;-70
2021/01/26 10:38:30;;;;;;;7.35;3.38;;;8.20;56.70;;;;;;4988836;28;20033;-69
2021/01/26 10:41:22;;;;;;;12.15;3.85;;;8.20;56.20;;;;;;4992366;28;20022;-69
2021/01/26 10:44:01;;;;;;;9.00;3.10;;;8.00;56.50;;;;;;4994976;28;20022;-70
2021/01/26 10:46:32;;;;;;;11.35;3.30;;;7.90;57.10;;;;;;4991681;28;20034;-69
2021/01/26 10:49:10;;;;;;;8.52;4.45;;;7.90;56.90;;;;;;4979259;28;20118;-69
2021/01/26 10:51:38;;;;;;;9.25;2.70;;;7.70;56.90;;;;;;4992610;28;20480;-69
2021/01/26 10:54:08;;;;;;;12.75;4.18;;;7.60;56.70;;;;;;4991556;28;20045;-70
2021/01/26 10:56:35;;;;;;;7.97;3.28;;;7.50;56.70;;;;;;4992677;28;20022;-69
2021/01/26 10:59:02;;;;;;;8.25;3.65;;;7.40;57.20;;;;;;4993314;28;20560;-70
2021/01/26 11:01:30;;;;;;;11.82;3.90;;;7.40;57.60;;;;;;4988094;28;20030;-70
2021/01/26 11:03:57;;;;;;;6.50;3.13;;;7.40;57.60;;;;;;4993458;28;20038;-70
2021/01/26 11:06:24;;;;;;;6.25;3.10;;;7.20;57.90;;;;;;4994742;28;20448;-70
2021/01/26 11:08:51;;;;;;;16.00;4.28;;;7.00;57.70;;;;;;4989829;28;20030;-70
2021/01/26 11:11:25;;;;;;;12.48;4.40;;;7.00;58.60;;;;;;4988178;28;20057;-69
2021/01/26 11:13:52;;;;;;;8.82;3.33;;;6.90;58.30;;;;;;4990659;28;20062;-69
2021/01/26 11:16:19;;;;;;;6.82;3.10;;;6.80;57.90;;;;;;4988122;28;20610;-70
2021/01/26 11:18:46;;;;;;;9.10;3.30;;;6.70;58.10;;;;;;4993681;28;20022;-70
2021/01/26 11:21:13;;;;;;;10.45;3.85;;;6.70;59.20;;;;;;4992960;28;20500;-69
2021/01/26 11:23:41;;;;;;;11.38;3.83;;;6.70;59.00;;;;;;4992929;28;20026;-69
2021/01/26 11:26:10;;;;;;;13.88;4.20;;;6.60;58.80;;;;;;4991511;28;20026;-69
2021/01/26 11:28:36;;;;;;;18.23;4.70;;;6.70;59.30;;;;;;4991474;28;20460;-69
2021/01/26 11:31:03;;;;;;;9.68;3.65;;;6.70;59.60;;;;;;4983848;28;20034;-69
2021/01/26 11:33:29;;;;;;;11.15;2.97;;;6.70;59.40;;;;;;5001172;28;20030;-69
2021/01/26 11:35:58;;;;;;;8.20;3.38;;;6.70;59.30;;;;;;4996528;28;20034;-69
2021/01/26 11:38:25;;;;;;;6.75;2.95;;;6.50;59.10;;;;;;4991703;28;20099;-69
2021/01/26 11:40:52;;;;;;;10.45;3.67;;;6.50;59.80;;;;;;4984225;28;20030;-69
2021/01/26 11:43:18;;;;;;;10.45;4.30;;;6.40;59.20;;;;;;4977121;28;20023;-69
2021/01/26 11:45:45;;;;;;;7.65;3.30;;;6.40;59.50;;;;;;4985230;28;20033;-70
2021/01/26 11:48:12;;;;;;;3.90;3.25;;;6.30;60.00;;;;;;4997218;28;20022;-69
2021/01/26 11:50:40;;;;;;;7.55;2.78;;;6.30;59.30;;;;;;4995019;28;20038;-69
2021/01/26 11:53:13;;;;;;;4.00;3.20;;;6.30;59.50;;;;;;4996568;28;20031;-69
2021/01/26 11:55:40;;;;;;;10.50;2.75;;;6.20;59.10;;;;;;4993368;28;20031;-69
2021/01/26 11:58:06;;;;;;;6.45;2.72;;;6.30;59.90;;;;;;4996234;28;20388;-69
2021/01/26 12:00:34;;;;;;;7.90;2.95;;;6.20;59.10;;;;;;4995327;28;20031;-70
2021/01/26 12:03:02;;;;;;;8.57;4.60;;;6.20;59.60;;;;;;4995582;28;20037;-69
2021/01/26 12:05:33;;;;;;;9.98;3.38;;;6.10;59.50;;;;;;4992659;28;20035;-69
2021/01/26 12:08:00;;;;;;;6.43;2.92;;;6.10;59.90;;;;;;4996360;28;20026;-69
2021/01/26 12:10:27;;;;;;;7.90;3.22;;;6.10;60.60;;;;;;4993319;28;20073;-69
2021/01/26 12:12:54;;;;;;;5.63;3.13;;;6.00;60.70;;;;;;4996191;28;20022;-69
2021/01/26 12:15:30;;;;;;;5.40;3.65;;;6.00;60.60;;;;;;4996593;28;20137;-69
2021/01/26 12:17:58;;;;;;;7.13;3.35;;;6.10;60.60;;;;;;4992981;28;20494;-69
2021/01/26 12:20:27;;;;;;;7.38;3.20;;;5.90;60.60;;;;;;4995912;28;20030;-69
2021/01/26 12:22:54;;;;;;;7.40;4.07;;;5.90;60.10;;;;;;4996940;28;20030;-69
2021/01/26 12:25:22;;;;;;;6.68;3.38;;;5.90;61.50;;;;;;4996176;28;20061;-69
2021/01/26 12:27:49;;;;;;;10.43;3.25;;;5.90;60.40;;;;;;4995589;28;20057;-69
2021/01/26 12:30:17;;;;;;;7.90;3.10;;;5.80;60.10;;;;;;4992876;28;20022;-69
2021/01/26 12:32:44;;;;;;;13.00;3.40;;;5.90;61.70;;;;;;4996630;28;20030;-69
2021/01/26 12:35:17;;;;;;;6.60;3.13;;;6.00;61.70;;;;;;4994792;28;20468;-69
2021/01/26 12:37:43;;;;;;;9.52;3.38;;;6.00;61.20;;;;;;4994356;28;20037;-70
2021/01/26 12:40:10;;;;;;;12.63;3.33;;;6.00;61.80;;;;;;4996226;28;20023;-69
2021/01/26 12:42:38;;;;;;;10.90;3.85;;;5.80;61.10;;;;;;4994034;28;20376;-69
2021/01/26 12:45:05;;;;;;;6.78;3.58;;;5.70;61.10;;;;;;4995652;28;20065;-69
2021/01/26 12:47:31;;;;;;;16.15;3.47;;;5.80;61.80;;;;;;4995928;28;20030;-69
2021/01/26 12:49:58;;;;;;;4.93;3.33;;;5.80;61.80;;;;;;4992807;28;20027;-69
2021/01/26 12:52:24;;;;;;;14.75;3.70;;;5.90;62.90;;;;;;4995739;28;20026;-69
2021/01/26 12:54:51;;;;;;;8.07;3.67;;;5.90;62.90;;;;;;4991756;28;20026;-69
2021/01/26 12:57:18;;;;;;;7.70;3.28;;;6.00;63.10;;;;;;4994488;28;20030;-69
2021/01/26 12:59:44;;;;;;;10.52;3.42;;;6.10;63.00;;;;;;4995212;28;20042;-69
2021/01/26 13:02:11;;;;;;;9.15;3.95;;;6.00;62.90;;;;;;4994568;28;20180;-69
2021/01/26 13:04:37;;;;;;;11.43;4.00;;;6.00;63.10;;;;;;4994801;28;20065;-69
2021/01/26 13:07:03;;;;;;;12.48;5.03;;;6.00;63.10;;;;;;4994216;28;20022;-69
2021/01/26 13:09:30;;;;;;;11.68;3.10;;;5.90;62.40;;;;;;4996279;28;20045;-69
2021/01/26 13:11:56;;;;;;;6.20;3.40;;;6.00;63.80;;;;;;4993734;28;20090;-69
2021/01/26 13:14:23;;;;;;;11.20;3.22;;;5.90;63.20;;;;;;4994448;28;20019;-69
2021/01/26 13:16:49;;;;;;;10.40;3.63;;;5.80;62.80;;;;;;4995325;28;20399;-69
2021/01/26 13:19:15;;;;;;;9.82;3.08;;;5.80;63.80;;;;;;4995199;28;20034;-70
2021/01/26 13:21:42;;;;;;;12.10;3.45;;;5.90;63.50;;;;;;4995447;28;20048;-69
2021/01/26 13:24:08;;;;;;;11.50;3.53;;;5.90;63.50;;;;;;4994916;28;20383;-69
2021/01/26 13:26:35;;;;;;;7.43;3.13;;;5.90;64.20;;;;;;4996044;28;20031;-69
2021/01/26 13:29:01;;;;;;;11.40;3.70;;;6.00;64.60;;;;;;4993703;28;20105;-72